Time;durP1;ratioP1;P1;durP2;ratioP2;P2;SDS_P1;SDS_P2;PMS_P1;PMS_P2;Temp;Humidity;BMP_temperature;BMP_pressure;BME280_temperature;BME280_humidity;BME280_pressure;Samples;Min_cycle;Max_cycle;Signal;HPM_P1;HPM_P2
2021/11/20 00:00:39;;;;;;;10.30;7.93;;;11.80;99.90;;;;;;4998009;28;20033;-62
2021/11/20 00:03:05;;;;;;;7.55;6.75;;;11.80;99.90;;;;;;5015254;28;20039;-62
2021/11/20 00:05:36;;;;;;;9.25;7.05;;;11.80;99.90;;;;;;4997788;28;20478;-62
2021/11/20 00:08:05;;;;;;;10.05;7.63;;;11.80;99.90;;;;;;5015443;28;20109;-62
2021/11/20 00:10:34;;;;;;;9.13;6.97;;;11.80;99.90;;;;;;5015150;28;20037;-62
2021/11/20 00:13:00;;;;;;;8.48;6.78;;;11.80;99.90;;;;;;5015079;28;20771;-62
2021/11/20 00:15:32;;;;;;;7.88;6.57;;;11.80;99.90;;;;;;5015289;28;20105;-62
2021/11/20 00:17:58;;;;;;;9.15;6.55;;;11.80;99.90;;;;;;4988105;28;20034;-62
2021/11/20 00:20:27;;;;;;;9.68;6.38;;;11.80;99.90;;;;;;4997704;28;20032;-62
2021/11/20 00:22:54;;;;;;;8.30;6.32;;;11.80;99.90;;;;;;5014917;28;20037;-62
2021/11/20 00:25:39;;;;;;;8.13;6.95;;;11.80;99.90;;;;;;4997310;28;20444;-62
2021/11/20 00:28:05;;;;;;;8.68;6.63;;;11.80;99.90;;;;;;4998493;28;20031;-62
2021/11/20 00:30:41;;;;;;;10.65;7.32;;;11.70;99.90;;;;;;5014895;28;20064;-62
2021/11/20 00:33:10;;;;;;;9.30;7.35;;;11.80;99.90;;;;;;5013647;28;20044;-62
2021/11/20 00:35:38;;;;;;;9.95;7.53;;;11.80;99.90;;;;;;5014904;28;20026;-62
2021/11/20 00:38:06;;;;;;;9.15;6.97;;;11.70;99.90;;;;;;5014801;28;20026;-62
2021/11/20 00:40:37;;;;;;;9.00;6.88;;;11.70;99.90;;;;;;5014513;28;20083;-62
2021/11/20 00:43:03;;;;;;;8.75;6.90;;;11.70;99.90;;;;;;5014696;28;20029;-62
2021/11/20 00:45:31;;;;;;;10.52;7.72;;;11.70;99.90;;;;;;5007827;28;20076;-62
2021/11/20 00:47:57;;;;;;;11.00;8.68;;;11.70;99.90;;;;;;5014642;28;20029;-62
2021/11/20 00:50:24;;;;;;;10.25;8.70;;;11.60;99.90;;;;;;5014596;28;20030;-62
2021/11/20 00:52:49;;;;;;;11.10;9.05;;;11.60;99.90;;;;;;5014642;28;20029;-62
2021/11/20 00:55:21;;;;;;;13.48;9.85;;;11.60;99.90;;;;;;5014208;28;20080;-62
2021/11/20 00:57:48;;;;;;;11.80;9.68;;;11.60;99.90;;;;;;5014501;28;20014;-62
2021/11/20 01:00:16;;;;;;;12.57;9.57;;;11.50;99.90;;;;;;5014444;28;20078;-62
2021/11/20 01:02:42;;;;;;;11.80;9.00;;;11.50;99.90;;;;;;5014292;28;20116;-62
2021/11/20 01:05:10;;;;;;;12.38;9.38;;;11.50;99.90;;;;;;5014193;28;20533;-62
2021/11/20 01:07:36;;;;;;;10.55;9.00;;;11.50;99.90;;;;;;5014279;28;20026;-62
2021/11/20 01:10:06;;;;;;;11.48;9.02;;;11.50;99.90;;;;;;5014058;28;20390;-62
2021/11/20 01:12:32;;;;;;;11.55;9.18;;;11.50;99.90;;;;;;5014017;28;20125;-62
2021/11/20 01:14:59;;;;;;;11.65;8.95;;;11.50;99.90;;;;;;5014127;28;20112;-62
2021/11/20 01:17:27;;;;;;;11.02;9.75;;;11.50;99.90;;;;;;4992494;28;20018;-63
2021/11/20 01:19:53;;;;;;;10.50;9.27;;;11.50;99.90;;;;;;5006213;28;20172;-64
2021/11/20 01:22:20;;;;;;;10.52;8.27;;;11.50;99.90;;;;;;5013903;28;20105;-62
2021/11/20 01:24:46;;;;;;;10.82;8.88;;;11.50;99.90;;;;;;5013981;28;20092;-62
2021/11/20 01:27:12;;;;;;;11.93;9.55;;;11.50;99.90;;;;;;4993926;28;20073;-62
2021/11/20 01:29:38;;;;;;;11.40;10.23;;;11.50;99.90;;;;;;5013863;28;20169;-62
2021/11/20 01:32:05;;;;;;;12.52;8.63;;;11.50;99.90;;;;;;5013897;28;20018;-62
2021/11/20 01:34:31;;;;;;;9.68;8.70;;;11.50;99.90;;;;;;5013821;28;20132;-62
2021/11/20 01:36:59;;;;;;;10.18;9.07;;;11.50;99.90;;;;;;5013605;28;20042;-62
2021/11/20 01:39:29;;;;;;;11.05;9.80;;;11.50;99.90;;;;;;4996154;28;20394;-62
2021/11/20 01:42:06;;;;;;;10.40;9.30;;;11.50;99.90;;;;;;5013537;28;20057;-62
2021/11/20 01:44:39;;;;;;;10.65;9.38;;;11.50;99.90;;;;;;5013296;28;20030;-62
2021/11/20 01:47:21;;;;;;;11.20;9.38;;;11.50;99.90;;;;;;5013636;28;20038;-62
2021/11/20 01:49:54;;;;;;;11.13;9.10;;;11.60;99.90;;;;;;5013457;28;20371;-62
2021/11/20 01:52:23;;;;;;;12.73;8.85;;;11.50;99.90;;;;;;5013824;28;20087;-62
2021/11/20 01:55:09;;;;;;;9.35;8.10;;;11.50;99.90;;;;;;5013444;28;20044;-62
2021/11/20 01:57:49;;;;;;;9.02;8.00;;;11.50;99.90;;;;;;4995665;28;20022;-61
2021/11/20 02:00:30;;;;;;;10.40;8.27;;;11.60;99.90;;;;;;4995930;28;20032;-61
2021/11/20 02:03:07;;;;;;;9.18;8.18;;;11.50;99.90;;;;;;4995566;28;20116;-61
2021/11/20 02:05:42;;;;;;;9.45;8.45;;;11.60;99.90;;;;;;5013208;28;20025;-61
2021/11/20 02:08:27;;;;;;;10.95;8.88;;;11.50;99.90;;;;;;5013093;28;20052;-61
2021/11/20 02:11:00;;;;;;;11.77;9.30;;;11.60;99.90;;;;;;5012906;28;20401;-61
2021/11/20 02:13:29;;;;;;;12.25;9.68;;;11.60;99.90;;;;;;5012924;28;20156;-61
2021/11/20 02:16:01;;;;;;;9.85;8.85;;;11.50;99.90;;;;;;5013119;28;20026;-61
2021/11/20 02:18:31;;;;;;;10.00;9.00;;;11.60;99.90;;;;;;5012895;28;20116;-61
2021/11/20 02:21:17;;;;;;;10.30;9.20;;;11.60;99.90;;;;;;5012876;28;20030;-61
2021/11/20 02:23:42;;;;;;;13.15;10.52;;;11.60;99.90;;;;;;4995255;28;20034;-61
2021/11/20 02:26:08;;;;;;;12.32;10.45;;;11.50;99.90;;;;;;5012983;28;20033;-61
2021/11/20 02:28:36;;;;;;;11.88;10.20;;;11.50;99.90;;;;;;5012636;28;20025;-61
2021/11/20 02:31:04;;;;;;;12.40;9.65;;;11.50;99.90;;;;;;5012638;28;20382;-61
2021/11/20 02:33:40;;;;;;;12.50;9.43;;;11.50;99.90;;;;;;4995015;28;20075;-61
2021/11/20 02:36:14;;;;;;;11.75;10.55;;;11.60;99.90;;;;;;5012826;28;20030;-61
2021/11/20 02:38:55;;;;;;;12.95;10.15;;;11.50;99.90;;;;;;5012560;28;20438;-61
2021/11/20 02:41:21;;;;;;;11.10;9.77;;;11.60;99.90;;;;;;4991066;28;20030;-61
2021/11/20 02:43:50;;;;;;;11.27;9.23;;;11.50;99.90;;;;;;5013267;28;20026;-61
2021/11/20 02:46:23;;;;;;;13.48;12.07;;;11.50;99.90;;;;;;5012571;28;20022;-61
2021/11/20 02:48:49;;;;;;;17.73;13.38;;;11.50;99.90;;;;;;5012571;28;20062;-61
2021/11/20 02:51:26;;;;;;;16.95;12.45;;;11.50;99.90;;;;;;5012503;28;20034;-61
2021/11/20 02:54:01;;;;;;;16.45;12.77;;;11.40;99.90;;;;;;5012376;28;20025;-61
2021/11/20 02:56:31;;;;;;;13.73;12.27;;;11.50;99.90;;;;;;5011949;28;20034;-61
2021/11/20 02:58:58;;;;;;;14.25;12.05;;;11.40;99.90;;;;;;5012290;28;20042;-61
2021/11/20 03:01:30;;;;;;;15.73;12.80;;;11.50;99.90;;;;;;5012445;28;20045;-61
2021/11/20 03:03:56;;;;;;;12.98;11.55;;;11.50;99.90;;;;;;5012336;28;20030;-61
2021/11/20 03:06:22;;;;;;;14.93;13.32;;;11.50;99.90;;;;;;5012292;28;20034;-61
2021/11/20 03:08:48;;;;;;;18.17;15.07;;;11.40;99.90;;;;;;5012506;28;20029;-61
2021/11/20 03:11:15;;;;;;;20.60;15.23;;;11.40;99.90;;;;;;5012221;28;20042;-61
2021/11/20 03:13:43;;;;;;;18.25;16.17;;;11.40;99.90;;;;;;5012058;28;20076;-61
2021/11/20 03:16:09;;;;;;;20.80;17.35;;;11.30;99.90;;;;;;5012192;28;20029;-61
2021/11/20 03:18:35;;;;;;;18.13;15.35;;;11.30;99.90;;;;;;5012185;28;20022;-61
2021/11/20 03:21:02;;;;;;;21.67;17.40;;;11.30;99.90;;;;;;5012107;28;20033;-61
2021/11/20 03:23:31;;;;;;;21.50;17.17;;;11.30;99.90;;;;;;5012008;28;20072;-61
2021/11/20 03:25:57;;;;;;;21.70;17.48;;;11.30;99.90;;;;;;5012270;28;20037;-61
2021/11/20 03:28:23;;;;;;;23.00;17.77;;;11.30;99.90;;;;;;4994478;28;20022;-61
2021/11/20 03:30:49;;;;;;;20.02;16.40;;;11.30;99.90;;;;;;5011984;28;20046;-61
2021/11/20 03:33:15;;;;;;;19.35;16.63;;;11.40;99.90;;;;;;5012169;28;20390;-61
2021/11/20 03:35:42;;;;;;;21.35;16.08;;;11.30;99.90;;;;;;5011873;28;20041;-61
2021/11/20 03:38:08;;;;;;;23.38;18.92;;;11.40;99.90;;;;;;4994505;28;20096;-61
2021/11/20 03:40:33;;;;;;;26.83;21.00;;;11.30;99.90;;;;;;5012038;28;20058;-61
2021/11/20 03:42:59;;;;;;;23.60;18.90;;;11.30;99.90;;;;;;5011867;28;20100;-61
2021/11/20 03:45:28;;;;;;;24.55;20.20;;;11.30;99.90;;;;;;5011850;28;20026;-61
2021/11/20 03:47:53;;;;;;;23.98;19.83;;;11.30;99.90;;;;;;5011912;28;20030;-61
2021/11/20 03:50:19;;;;;;;25.83;18.85;;;11.30;99.90;;;;;;5009931;28;20041;-61
2021/11/20 03:52:46;;;;;;;23.30;17.88;;;11.30;99.90;;;;;;5011989;28;20076;-60
2021/11/20 03:55:16;;;;;;;21.05;16.80;;;11.40;99.90;;;;;;5011829;28;20026;-61
2021/11/20 03:57:41;;;;;;;23.27;17.02;;;11.40;99.90;;;;;;5011952;28;20064;-61
2021/11/20 04:00:11;;;;;;;21.90;17.10;;;11.30;99.90;;;;;;4994184;28;20026;-61
2021/11/20 04:02:37;;;;;;;24.00;18.92;;;11.40;99.90;;;;;;5011669;28;20566;-61
2021/11/20 04:05:05;;;;;;;22.05;16.98;;;11.30;99.90;;;;;;5011747;28;20040;-61
2021/11/20 04:07:30;;;;;;;26.00;20.00;;;11.40;99.90;;;;;;5013374;28;20029;-61
2021/11/20 04:09:56;;;;;;;28.10;21.50;;;11.30;99.90;;;;;;4997832;28;20037;-61
2021/11/20 04:12:22;;;;;;;30.70;23.13;;;11.30;99.90;;;;;;4991743;28;20521;-61
2021/11/20 04:14:47;;;;;;;34.08;24.88;;;11.30;99.90;;;;;;5015093;28;20509;-61
2021/11/20 04:17:13;;;;;;;33.95;24.02;;;11.30;99.90;;;;;;5009812;28;20510;-61
2021/11/20 04:19:39;;;;;;;32.85;24.33;;;11.20;99.90;;;;;;5013438;28;20022;-61
2021/11/20 04:22:05;;;;;;;32.67;23.83;;;11.20;99.90;;;;;;5015471;28;20616;-61
2021/11/20 04:24:31;;;;;;;37.03;26.15;;;11.20;99.90;;;;;;5014977;28;20037;-61
2021/11/20 04:26:57;;;;;;;35.17;25.40;;;11.20;99.90;;;;;;5015190;28;20053;-61
2021/11/20 04:29:22;;;;;;;33.20;23.42;;;11.20;99.90;;;;;;5015049;28;20511;-61
2021/11/20 04:31:48;;;;;;;35.88;24.80;;;11.20;99.90;;;;;;5014657;28;20033;-61
2021/11/20 04:34:15;;;;;;;36.50;25.80;;;11.20;99.90;;;;;;5014796;28;20045;-61
2021/11/20 04:36:41;;;;;;;36.72;24.70;;;11.20;99.90;;;;;;5015150;28;20025;-61
2021/11/20 04:39:06;;;;;;;38.53;25.40;;;11.20;99.90;;;;;;4997169;28;20021;-61
2021/11/20 04:41:32;;;;;;;36.38;25.63;;;11.20;99.90;;;;;;5014809;28;20080;-61
2021/11/20 04:43:58;;;;;;;32.55;23.73;;;11.20;99.90;;;;;;5014769;28;20485;-61
2021/11/20 04:46:25;;;;;;;32.50;22.35;;;11.20;99.90;;;;;;5014575;28;20034;-61
2021/11/20 04:48:51;;;;;;;28.67;20.67;;;11.20;99.90;;;;;;5013817;28;20125;-61
2021/11/20 04:51:18;;;;;;;28.95;20.42;;;11.20;99.90;;;;;;5014769;28;20525;-61
2021/11/20 04:53:45;;;;;;;28.10;21.55;;;11.30;99.90;;;;;;5014402;28;20036;-62
2021/11/20 04:56:13;;;;;;;29.58;20.77;;;11.30;99.90;;;;;;5014687;28;20029;-61
2021/11/20 04:58:41;;;;;;;29.25;21.13;;;11.30;99.90;;;;;;5014439;28;20434;-62
2021/11/20 05:01:07;;;;;;;31.50;22.02;;;11.30;99.90;;;;;;4996638;28;20030;-61
2021/11/20 05:03:33;;;;;;;32.05;22.27;;;11.30;99.90;;;;;;5014395;28;20018;-61
2021/11/20 05:05:59;;;;;;;29.67;20.08;;;11.20;99.90;;;;;;5014417;28;20099;-61
2021/11/20 05:08:25;;;;;;;32.60;22.83;;;11.30;99.90;;;;;;5014455;28;20470;-61
2021/11/20 05:10:52;;;;;;;35.22;24.08;;;11.20;99.90;;;;;;5013775;28;20092;-61
2021/11/20 05:13:20;;;;;;;36.28;24.40;;;11.20;99.90;;;;;;5014072;28;20064;-61
2021/11/20 05:15:48;;;;;;;40.05;26.40;;;11.20;99.80;;;;;;5013863;28;20395;-61
2021/11/20 05:18:15;;;;;;;34.88;24.45;;;11.10;99.60;;;;;;5012959;28;20040;-61
2021/11/20 05:20:41;;;;;;;38.10;25.50;;;11.10;99.50;;;;;;5013407;28;20485;-61
2021/11/20 05:23:08;;;;;;;34.28;24.42;;;11.10;99.40;;;;;;4995824;28;20032;-61
2021/11/20 05:25:34;;;;;;;41.15;25.92;;;11.10;99.30;;;;;;5013467;28;20034;-61
2021/11/20 05:28:00;;;;;;;42.63;26.90;;;11.10;99.30;;;;;;5013737;28;20041;-61
2021/11/20 05:30:32;;;;;;;36.53;25.13;;;11.10;99.20;;;;;;5013821;28;20025;-61
2021/11/20 05:33:00;;;;;;;37.97;24.08;;;11.10;99.20;;;;;;5013855;28;20030;-61
2021/11/20 05:35:27;;;;;;;34.97;22.42;;;11.10;99.20;;;;;;5013730;28;20092;-61
2021/11/20 05:37:53;;;;;;;36.60;24.33;;;11.20;99.20;;;;;;5013876;28;20045;-61
2021/11/20 05:40:20;;;;;;;32.33;21.88;;;11.10;99.20;;;;;;5013831;28;20466;-61
2021/11/20 05:42:52;;;;;;;34.83;23.38;;;11.20;99.20;;;;;;5013424;28;20030;-61
2021/11/20 05:45:22;;;;;;;31.92;21.67;;;11.20;99.20;;;;;;5013726;28;20065;-61
2021/11/20 05:47:48;;;;;;;33.65;21.58;;;11.20;99.20;;;;;;4995965;28;20029;-62
2021/11/20 05:50:22;;;;;;;37.40;24.02;;;11.20;99.10;;;;;;5013499;28;20121;-61
2021/11/20 05:52:50;;;;;;;38.28;23.60;;;11.10;99.00;;;;;;5013374;28;20037;-62
2021/11/20 05:55:17;;;;;;;36.35;24.55;;;11.10;99.00;;;;;;5013147;28;20033;-61
2021/11/20 05:57:43;;;;;;;37.72;23.75;;;11.10;98.90;;;;;;5013349;28;20021;-61
2021/11/20 06:00:12;;;;;;;33.92;22.65;;;11.10;98.90;;;;;;5013435;28;20112;-61
2021/11/20 06:02:37;;;;;;;35.43;22.40;;;11.10;98.90;;;;;;5013090;28;20160;-61
2021/11/20 06:05:04;;;;;;;31.80;20.40;;;11.20;98.90;;;;;;5013284;28;20022;-61
2021/11/20 06:07:30;;;;;;;29.85;19.15;;;11.20;98.90;;;;;;5013224;28;20056;-61
2021/11/20 06:09:56;;;;;;;33.05;21.83;;;11.20;98.90;;;;;;5013068;28;20077;-61
2021/11/20 06:12:22;;;;;;;42.58;26.38;;;11.20;98.80;;;;;;5013146;28;20046;-61
2021/11/20 06:14:48;;;;;;;38.17;24.38;;;11.20;98.70;;;;;;5013081;28;20042;-61
2021/11/20 06:17:14;;;;;;;35.55;23.88;;;11.20;98.70;;;;;;5013203;28;20122;-61
2021/11/20 06:19:39;;;;;;;41.67;26.30;;;11.20;98.70;;;;;;4995393;28;20034;-61
2021/11/20 06:22:05;;;;;;;37.72;24.02;;;11.10;98.60;;;;;;4995224;28;20029;-61
2021/11/20 06:24:30;;;;;;;37.53;24.10;;;11.20;98.60;;;;;;5012936;28;20092;-62
2021/11/20 06:26:56;;;;;;;41.22;26.15;;;11.20;98.60;;;;;;5012919;28;20030;-61
2021/11/20 06:29:23;;;;;;;41.58;25.42;;;11.10;98.50;;;;;;5012870;28;20029;-61
2021/11/20 06:31:49;;;;;;;41.90;26.63;;;11.20;98.60;;;;;;5011758;28;20025;-61
2021/11/20 06:34:15;;;;;;;48.13;30.98;;;11.20;98.60;;;;;;5007860;28;20076;-62
2021/11/20 06:36:41;;;;;;;44.40;30.10;;;11.10;98.60;;;;;;4995125;28;20022;-61
2021/11/20 06:39:07;;;;;;;47.35;31.45;;;11.10;98.60;;;;;;5012658;28;20097;-61
2021/11/20 06:41:33;;;;;;;47.22;30.85;;;11.10;98.70;;;;;;4994843;28;20121;-61
2021/11/20 06:43:58;;;;;;;44.38;29.10;;;11.10;98.80;;;;;;5012346;28;20036;-61
2021/11/20 06:46:24;;;;;;;46.75;30.08;;;11.10;98.90;;;;;;5012512;28;20022;-61
2021/11/20 06:48:49;;;;;;;43.88;28.50;;;11.10;98.90;;;;;;5011453;28;20037;-61
2021/11/20 06:51:18;;;;;;;41.42;27.45;;;11.10;98.90;;;;;;5011741;28;20026;-61
2021/11/20 06:53:44;;;;;;;46.72;30.02;;;11.10;98.90;;;;;;5012101;28;20041;-61
2021/11/20 06:56:14;;;;;;;52.65;32.42;;;11.10;98.90;;;;;;5012199;28;20030;-61
2021/11/20 07:01:16;;;;;;;50.53;32.05;;;11.00;98.90;;;;;;5012549;28;19909;-61
2021/11/20 07:03:48;;;;;;;42.90;28.75;;;11.00;99.00;;;;;;5011322;28;20116;-61
2021/11/20 07:06:18;;;;;;;42.13;26.83;;;11.00;99.00;;;;;;5012201;28;20513;-61
2021/11/20 07:08:46;;;;;;;43.80;29.00;;;11.00;98.90;;;;;;5011015;28;20033;-61
2021/11/20 07:11:14;;;;;;;45.97;30.65;;;11.00;98.90;;;;;;5011638;28;20044;-61
2021/11/20 07:13:40;;;;;;;42.25;28.77;;;11.00;98.90;;;;;;5012397;28;20022;-61
2021/11/20 07:16:08;;;;;;;53.95;34.42;;;11.00;98.90;;;;;;5012352;28;20029;-61
2021/11/20 07:18:35;;;;;;;50.05;34.92;;;11.10;98.90;;;;;;5011993;28;20029;-61
2021/11/20 07:21:01;;;;;;;56.20;36.65;;;11.00;98.80;;;;;;5012170;28;20501;-61
2021/11/20 07:23:29;;;;;;;54.15;34.95;;;11.00;98.70;;;;;;4994747;28;20116;-61
2021/11/20 07:25:56;;;;;;;52.80;34.25;;;11.00;98.70;;;;;;5012459;28;20034;-61
2021/11/20 07:28:21;;;;;;;48.20;31.48;;;11.00;98.60;;;;;;5011333;28;20029;-61
2021/11/20 07:30:47;;;;;;;48.97;33.17;;;11.10;98.60;;;;;;5012152;28;20045;-61
2021/11/20 07:33:12;;;;;;;54.35;35.72;;;11.10;98.60;;;;;;5008769;28;20446;-61
2021/11/20 07:35:44;;;;;;;49.35;33.13;;;11.10;98.50;;;;;;4992070;28;20030;-61
2021/11/20 07:38:13;;;;;;;45.67;29.90;;;11.10;98.50;;;;;;5002299;28;20528;-61
2021/11/20 07:40:40;;;;;;;51.70;35.10;;;11.10;98.50;;;;;;5006351;28;20042;-61
2021/11/20 07:43:06;;;;;;;54.00;36.58;;;11.10;98.50;;;;;;5012183;28;20030;-61
2021/11/20 07:45:32;;;;;;;57.75;37.95;;;11.10;98.40;;;;;;5013505;28;20049;-61
2021/11/20 07:48:12;;;;;;;55.08;37.40;;;11.10;98.30;;;;;;5013616;28;20036;-61
2021/11/20 07:50:39;;;;;;;53.45;36.28;;;11.10;98.30;;;;;;5012218;28;20022;-61
2021/11/20 07:53:07;;;;;;;50.53;34.05;;;11.10;98.40;;;;;;4996226;28;20018;-61
2021/11/20 07:55:33;;;;;;;53.20;36.72;;;11.10;98.40;;;;;;5013320;28;20532;-61
2021/11/20 07:57:59;;;;;;;57.50;38.80;;;11.10;98.30;;;;;;5013135;28;20117;-61
2021/11/20 08:00:26;;;;;;;59.92;38.28;;;11.10;98.30;;;;;;5011385;28;20113;-61
2021/11/20 08:02:52;;;;;;;57.92;37.92;;;11.10;98.30;;;;;;5011134;28;20084;-61
2021/11/20 08:05:18;;;;;;;63.90;39.58;;;11.10;98.20;;;;;;5011322;28;20021;-61
2021/11/20 08:07:43;;;;;;;58.03;37.00;;;11.10;98.20;;;;;;4993214;28;20034;-61
2021/11/20 08:10:12;;;;;;;64.60;39.53;;;11.10;98.20;;;;;;4993253;28;20036;-61
2021/11/20 08:12:38;;;;;;;58.50;36.63;;;11.10;98.30;;;;;;4991667;28;20109;-61
2021/11/20 08:15:05;;;;;;;59.90;38.17;;;11.10;98.30;;;;;;4977221;28;20470;-61
2021/11/20 08:17:31;;;;;;;56.67;36.60;;;11.10;98.30;;;;;;4993415;28;20029;-61
2021/11/20 08:19:56;;;;;;;58.00;37.65;;;11.10;98.30;;;;;;4992464;28;20030;-61
2021/11/20 08:22:22;;;;;;;58.85;36.75;;;11.10;98.30;;;;;;4993966;28;20042;-61
2021/11/20 08:24:47;;;;;;;60.47;38.22;;;11.10;98.30;;;;;;4991564;28;20041;-61
2021/11/20 08:27:13;;;;;;;61.38;39.72;;;11.10;98.30;;;;;;4992266;28;20041;-61
2021/11/20 08:29:40;;;;;;;59.47;41.33;;;11.10;98.30;;;;;;4995356;28;20521;-61
2021/11/20 08:32:07;;;;;;;65.45;43.58;;;11.10;98.20;;;;;;4995303;28;20014;-62
2021/11/20 08:34:36;;;;;;;58.67;38.40;;;11.10;98.10;;;;;;4995324;28;20033;-61
2021/11/20 08:37:02;;;;;;;53.95;37.47;;;11.10;98.10;;;;;;4995282;28;20026;-62
2021/11/20 08:39:29;;;;;;;50.25;34.22;;;11.10;98.10;;;;;;4995120;28;20089;-62
2021/11/20 08:41:55;;;;;;;50.22;33.92;;;11.10;98.10;;;;;;4993672;28;20042;-62
2021/11/20 08:44:20;;;;;;;48.33;33.55;;;11.20;98.10;;;;;;4995151;28;20022;-62
2021/11/20 08:46:48;;;;;;;48.63;33.33;;;11.20;98.10;;;;;;4994057;28;20566;-61
2021/11/20 08:49:14;;;;;;;47.92;33.45;;;11.20;98.10;;;;;;4994882;28;20113;-62
2021/11/20 08:51:43;;;;;;;42.28;30.00;;;11.20;98.10;;;;;;4993490;28;20125;-62
2021/11/20 08:54:09;;;;;;;42.15;30.75;;;11.30;98.10;;;;;;4993852;28;20394;-62
2021/11/20 08:56:38;;;;;;;46.10;33.05;;;11.30;98.10;;;;;;4994976;28;20035;-62
2021/11/20 08:59:07;;;;;;;39.97;28.98;;;11.30;98.00;;;;;;4994938;28;20034;-62
2021/11/20 09:01:43;;;;;;;39.58;28.13;;;11.30;98.00;;;;;;4991441;28;20054;-62
2021/11/20 09:04:14;;;;;;;40.20;29.30;;;11.30;98.00;;;;;;4994712;28;20034;-62
2021/11/20 09:06:51;;;;;;;40.33;28.42;;;11.30;98.00;;;;;;4994487;28;20514;-61
2021/11/20 09:09:41;;;;;;;38.78;27.23;;;11.30;98.00;;;;;;4994266;28;20467;-61
2021/11/20 09:12:15;;;;;;;37.85;26.83;;;11.40;98.00;;;;;;4994602;28;20042;-63
2021/11/20 09:15:23;;;;;;;;;;;;;;;;;;;;;
2021/11/20 09:17:50;;;;;;;36.42;25.65;;;11.40;97.90;;;;;;4946935;28;20034;-62
2021/11/20 09:20:17;;;;;;;41.20;27.98;;;11.30;98.00;;;;;;4994006;28;20023;-63
2021/11/20 09:22:43;;;;;;;37.60;27.25;;;11.40;98.00;;;;;;4993769;28;20030;-63
2021/11/20 09:25:09;;;;;;;38.35;26.50;;;11.40;98.00;;;;;;4994323;28;20093;-63
2021/11/20 09:27:35;;;;;;;41.70;27.52;;;11.40;98.00;;;;;;4990570;28;20108;-63
2021/11/20 09:30:07;;;;;;;42.65;29.80;;;11.30;98.00;;;;;;4993776;28;20486;-63
2021/11/20 09:32:34;;;;;;;41.20;28.20;;;11.40;98.20;;;;;;4976730;28;20022;-63
2021/11/20 09:34:59;;;;;;;35.88;25.77;;;11.40;98.10;;;;;;4994182;28;20486;-62
2021/11/20 09:37:25;;;;;;;41.10;29.17;;;11.40;98.10;;;;;;4994379;28;20041;-62
2021/11/20 09:39:50;;;;;;;39.40;27.48;;;11.40;98.00;;;;;;4994035;28;20058;-62
2021/11/20 09:42:50;;;;;;;40.25;27.83;;;11.40;98.00;;;;;;4993673;28;20614;-62
2021/11/20 09:45:22;;;;;;;36.85;26.17;;;11.40;97.90;;;;;;4954506;28;20034;-62
2021/11/20 09:47:53;;;;;;;35.30;24.23;;;11.40;98.10;;;;;;4975100;28;20498;-62
2021/11/20 09:50:28;;;;;;;37.70;26.80;;;11.40;98.30;;;;;;4993614;28;20113;-62
2021/11/20 09:53:32;;;;;;;36.15;24.90;;;11.40;98.00;;;;;;4993136;28;20026;-62
2021/11/20 09:56:22;;;;;;;34.38;23.92;;;11.40;98.00;;;;;;4992563;28;20460;-62
2021/11/20 09:58:55;;;;;;;34.25;24.80;;;11.40;98.10;;;;;;4993731;28;20033;-65
2021/11/20 10:01:36;;;;;;;35.70;24.77;;;11.40;98.10;;;;;;4993512;28;20045;-62
2021/11/20 10:04:02;;;;;;;38.92;25.95;;;11.40;98.10;;;;;;4993680;28;20093;-62
2021/11/20 10:06:41;;;;;;;40.78;27.73;;;11.40;98.10;;;;;;4974980;28;20479;-62
2021/11/20 10:09:45;;;;;;;39.08;26.83;;;11.40;98.10;;;;;;4973486;28;20490;-62
2021/11/20 10:12:21;;;;;;;39.72;27.67;;;11.50;98.10;;;;;;4978307;28;20136;-62
2021/11/20 10:14:55;;;;;;;39.40;28.13;;;11.40;98.20;;;;;;4991944;28;20694;-62
2021/11/20 10:17:30;;;;;;;36.47;25.65;;;11.40;98.20;;;;;;4991720;28;20023;-62
2021/11/20 10:20:19;;;;;;;36.03;25.80;;;11.40;98.20;;;;;;4990391;28;20022;-62
2021/11/20 10:22:59;;;;;;;40.95;28.45;;;11.40;98.20;;;;;;4991174;28;20513;-62
2021/11/20 10:25:57;;;;;;;45.30;31.52;;;11.40;98.20;;;;;;4991666;28;20026;-62
2021/11/20 10:28:46;;;;;;;45.50;30.00;;;11.40;98.20;;;;;;4988665;28;20486;-62
2021/11/20 10:31:24;;;;;;;36.40;25.63;;;11.40;98.20;;;;;;4992024;28;20047;-62
2021/11/20 10:34:14;;;;;;;39.95;28.83;;;11.40;98.30;;;;;;4975008;28;20034;-62
2021/11/20 10:37:04;;;;;;;44.08;28.52;;;11.40;98.30;;;;;;4993152;28;20389;-62
2021/11/20 10:39:38;;;;;;;;;;;11.40;98.30;;;;;;4993506;28;20034;-62
2021/11/20 10:42:14;;;;;;;42.20;27.65;;;11.40;98.40;;;;;;4993239;28;19996;-62
2021/11/20 10:44:39;;;;;;;38.42;26.38;;;11.40;98.40;;;;;;4992948;28;20621;-62
2021/11/20 10:47:11;;;;;;;38.13;26.88;;;11.40;98.40;;;;;;4993291;28;20117;-63
2021/11/20 10:49:57;;;;;;;41.08;28.13;;;11.40;98.40;;;;;;4975338;28;20117;-63
2021/11/20 10:52:48;;;;;;;38.33;26.63;;;11.50;98.30;;;;;;4972458;28;20121;-62
2021/11/20 10:55:52;;;;;;;40.50;28.08;;;11.50;98.30;;;;;;4992490;28;20517;-62
2021/11/20 10:58:46;;;;;;;36.47;26.75;;;11.50;98.20;;;;;;4993008;28;20033;-63
2021/11/20 11:01:49;;;;;;;37.90;25.60;;;11.50;98.20;;;;;;4992852;28;20022;-62
2021/11/20 11:04:56;;;;;;;33.03;23.85;;;11.50;98.10;;;;;;4992739;28;20022;-62
2021/11/20 11:07:32;;;;;;;36.47;25.58;;;11.50;98.10;;;;;;4992834;28;20049;-62
2021/11/20 11:10:34;;;;;;;;;;;;;;;;;;;;;
2021/11/20 11:13:09;;;;;;;35.35;25.27;;;11.60;98.20;;;;;;5002673;28;20042;-62
2021/11/20 11:16:01;;;;;;;34.47;24.85;;;11.50;98.10;;;;;;5011865;28;20024;-62
2021/11/20 11:18:40;;;;;;;36.67;24.90;;;11.60;98.10;;;;;;5018017;28;20022;-62
2021/11/20 11:21:35;;;;;;;30.13;22.50;;;11.60;98.10;;;;;;5018952;28;20040;-62
2021/11/20 11:24:11;;;;;;;34.58;24.30;;;11.60;98.10;;;;;;5018593;28;20048;-62
2021/11/20 11:26:46;;;;;;;36.90;24.98;;;11.60;98.10;;;;;;5018668;28;20040;-62
2021/11/20 11:30:11;;;;;;;36.90;24.75;;;11.50;98.10;;;;;;5018602;28;20066;-62
2021/11/20 11:32:41;;;;;;;37.03;24.70;;;11.50;98.10;;;;;;5005730;28;20502;-62
2021/11/20 11:35:31;;;;;;;34.75;25.52;;;11.50;98.30;;;;;;5018586;28;20020;-62
2021/11/20 11:38:26;;;;;;;38.05;25.10;;;11.50;98.30;;;;;;5018619;28;20077;-62
2021/11/20 11:41:05;;;;;;;38.92;27.02;;;11.50;98.30;;;;;;5018383;28;20057;-62
2021/11/20 11:44:11;;;;;;;38.58;27.15;;;11.50;98.40;;;;;;5018588;28;20520;-62
2021/11/20 11:46:54;;;;;;;36.83;25.02;;;11.50;98.30;;;;;;5000672;28;20044;-62
2021/11/20 11:49:59;;;;;;;33.08;23.27;;;11.50;98.40;;;;;;5015913;28;20493;-62
2021/11/20 11:52:51;;;;;;;34.65;22.67;;;11.50;98.40;;;;;;5017673;28;20034;-62
2021/11/20 11:55:39;;;;;;;35.28;25.30;;;11.50;98.40;;;;;;5018387;28;20032;-62
2021/11/20 11:58:30;;;;;;;34.88;23.55;;;11.50;98.50;;;;;;5017255;28;20022;-62
2021/11/20 12:01:30;;;;;;;31.60;22.63;;;11.50;98.50;;;;;;5018235;28;20037;-62
2021/11/20 12:04:04;;;;;;;29.80;21.83;;;11.50;98.50;;;;;;5018185;28;20030;-62
2021/11/20 12:06:57;;;;;;;29.25;21.77;;;11.50;98.60;;;;;;5018375;28;20112;-62
2021/11/20 12:09:23;;;;;;;28.05;20.25;;;11.50;98.60;;;;;;5016187;28;20516;-62
2021/11/20 12:11:50;;;;;;;26.98;20.10;;;11.50;98.60;;;;;;5009613;28;20050;-62
2021/11/20 12:14:19;;;;;;;25.80;19.17;;;11.50;98.60;;;;;;4995852;28;20046;-63
2021/11/20 12:16:52;;;;;;;22.85;17.65;;;11.50;98.60;;;;;;4996462;28;20093;-62
2021/11/20 12:19:35;;;;;;;25.65;17.83;;;11.50;98.50;;;;;;4996978;28;20632;-62
2021/11/20 12:22:20;;;;;;;24.20;18.38;;;11.60;98.60;;;;;;4996303;28;20030;-63
2021/11/20 12:25:27;;;;;;;24.95;17.92;;;11.60;98.50;;;;;;4995882;28;20077;-62
2021/11/20 12:27:57;;;;;;;21.75;15.95;;;11.60;98.60;;;;;;4977505;28;20092;-62
2021/11/20 12:30:46;;;;;;;20.67;16.85;;;11.60;98.60;;;;;;4975397;28;20042;-62
2021/11/20 12:33:26;;;;;;;21.65;15.05;;;11.60;98.60;;;;;;4993027;28;20022;-62
2021/11/20 12:36:13;;;;;;;19.55;14.20;;;11.60;98.60;;;;;;4992661;28;20524;-62
2021/11/20 12:39:07;;;;;;;20.38;15.13;;;11.60;98.60;;;;;;4991176;28;20618;-62
2021/11/20 12:41:51;;;;;;;23.33;16.70;;;11.60;98.50;;;;;;4991216;28;20030;-62
2021/11/20 12:44:46;;;;;;;21.13;15.73;;;11.60;98.50;;;;;;4973030;28;20391;-62
2021/11/20 12:47:34;;;;;;;20.27;15.35;;;11.60;98.60;;;;;;4972598;28;20080;-63
2021/11/20 12:50:48;;;;;;;20.70;15.82;;;11.60;98.50;;;;;;4990919;28;20037;-62
2021/11/20 12:53:51;;;;;;;22.27;15.15;;;11.60;98.60;;;;;;4990106;28;20101;-62
2021/11/20 13:00:39;;;;;;;17.90;13.80;;;11.70;98.60;;;;;;4985813;28;20039;-62
2021/11/20 13:03:01;;;;;;;18.67;13.70;;;11.70;98.70;;;;;;4963771;28;20034;-62
2021/11/20 13:05:46;;;;;;;21.65;15.90;;;11.70;98.70;;;;;;4993289;28;20030;-62